Time;durP1;ratioP1;P1;durP2;ratioP2;P2;SDS_P1;SDS_P2;PMS_P1;PMS_P2;Temp;Humidity;BMP_temperature;BMP_pressure;BME280_temperature;BME280_humidity;BME280_pressure;Samples;Min_cycle;Max_cycle;Signal;HPM_P1;HPM_P2
2022/10/01 00:01:43;;;;;;;;;;;15.90;91.90;;;;;;5011717;28;19914;-24
2022/10/01 00:04:09;;;;;;;;;;;15.90;91.90;;;;;;5011784;28;20325;-24
2022/10/01 00:06:34;;;;;;;;;;;15.90;91.90;;;;;;5010392;28;19913;-24
2022/10/01 00:09:00;;;;;;;;;;;15.90;92.00;;;;;;5011620;28;19912;-24
2022/10/01 00:11:25;;;;;;;;;;;15.90;92.00;;;;;;5011421;28;20481;-23
2022/10/01 00:13:52;;;;;;;;;;;15.90;92.00;;;;;;5011572;28;19957;-24
2022/10/01 00:16:23;;;;;;;;;;;15.90;92.00;;;;;;5011720;28;19955;-24
2022/10/01 00:18:49;;;;;;;;;;;15.80;92.30;;;;;;5012558;28;19917;-24
2022/10/01 00:21:16;;;;;;;;;;;15.80;91.90;;;;;;5015156;28;19913;-24
2022/10/01 00:23:42;;;;;;;;;;;15.80;91.90;;;;;;5015366;28;19912;-23
2022/10/01 00:26:15;;;;;;;;;;;15.80;91.90;;;;;;5013779;28;20211;-24
2022/10/01 00:28:42;;;;;;;;;;;15.90;92.00;;;;;;5015339;28;19936;-23
2022/10/01 00:31:08;;;;;;;;;;;15.80;91.90;;;;;;5015074;28;19953;-24
2022/10/01 00:33:35;;;;;;;;;;;15.90;91.80;;;;;;5015257;28;19906;-24
2022/10/01 00:36:00;;;;;;;;;;;15.80;91.80;;;;;;5015016;28;19906;-24
2022/10/01 00:38:28;;;;;;;;;;;15.90;91.80;;;;;;5014872;28;19940;-24
2022/10/01 00:40:53;;;;;;;;;;;15.90;91.80;;;;;;5014583;28;19906;-24
2022/10/01 00:43:20;;;;;;;;;;;15.90;91.80;;;;;;5014770;28;19936;-24
2022/10/01 00:45:46;;;;;;;;;;;15.90;91.80;;;;;;5014944;28;19912;-24
2022/10/01 00:48:11;;;;;;;;;;;16.00;91.80;;;;;;5014731;28;20004;-23
2022/10/01 00:50:37;;;;;;;;;;;16.00;91.70;;;;;;5013226;28;19905;-23
2022/10/01 00:53:05;;;;;;;;;;;16.00;91.70;;;;;;5014684;28;19905;-24
2022/10/01 00:55:39;;;;;;;;;;;16.00;91.60;;;;;;5014812;28;19959;-23
2022/10/01 00:58:06;;;;;;;;;;;16.00;91.60;;;;;;5014582;28;19909;-23
2022/10/01 01:00:32;;;;;;;;;;;16.00;91.60;;;;;;5014361;28;19917;-23
2022/10/01 01:02:57;;;;;;;;;;;16.10;91.60;;;;;;5014874;28;19913;-24
2022/10/01 01:05:23;;;;;;;;;;;16.10;91.60;;;;;;5014406;28;20270;-24
2022/10/01 01:07:50;;;;;;;;;;;16.10;91.60;;;;;;5014262;28;19909;-24
2022/10/01 01:10:17;;;;;;;;;;;16.10;91.70;;;;;;5014139;28;19910;-24
2022/10/01 01:12:49;;;;;;;;;;;16.00;91.70;;;;;;5014289;28;19906;-24
2022/10/01 01:15:34;;;;;;;;;;;16.00;91.70;;;;;;5014294;28;20036;-24
2022/10/01 01:18:02;;;;;;;;;;;16.00;91.80;;;;;;5014117;28;19905;-24
2022/10/01 01:20:36;;;;;;;;;;;16.00;91.80;;;;;;5014077;28;19963;-24
2022/10/01 01:23:12;;;;;;;;;;;16.00;91.80;;;;;;5014181;28;20371;-24
2022/10/01 01:25:48;;;;;;;;;;;15.90;91.80;;;;;;5014103;28;19975;-24
2022/10/01 01:28:30;;;;;;;;;;;15.90;91.90;;;;;;5013810;28;19988;-24
2022/10/01 01:30:59;;;;;;;;;;;15.90;91.90;;;;;;5013815;28;19937;-24
2022/10/01 01:33:26;;;;;;;;;;;15.90;91.90;;;;;;5013945;28;19992;-24
2022/10/01 01:35:54;;;;;;;;;;;15.90;92.00;;;;;;5013868;28;19924;-24
2022/10/01 01:38:23;;;;;;;;;;;15.90;92.00;;;;;;5013681;28;19992;-24
2022/10/01 01:40:51;;;;;;;;;;;15.90;92.00;;;;;;5013650;28;19931;-24
2022/10/01 01:43:19;;;;;;;;;;;15.90;92.00;;;;;;5013599;28;19910;-24
2022/10/01 01:45:46;;;;;;;;;;;15.80;92.10;;;;;;5013708;28;19905;-24
2022/10/01 01:48:12;;;;;;;;;;;15.80;92.00;;;;;;5013581;28;19909;-24
2022/10/01 01:50:43;;;;;;;;;;;15.80;92.10;;;;;;5013458;28;19928;-24
2022/10/01 01:53:10;;;;;;;;;;;15.90;92.10;;;;;;5013875;28;19960;-24
2022/10/01 01:55:35;;;;;;;;;;;15.80;92.10;;;;;;5013498;28;19996;-24
2022/10/01 01:58:01;;;;;;;;;;;15.80;92.20;;;;;;5013292;28;19976;-24
2022/10/01 02:00:27;;;;;;;;;;;15.80;92.20;;;;;;5013305;28;19959;-24
2022/10/01 02:02:54;;;;;;;;;;;15.80;92.20;;;;;;5013431;28;19920;-24
2022/10/01 02:05:21;;;;;;;;;;;15.70;92.30;;;;;;5013521;28;20329;-23
2022/10/01 02:07:47;;;;;;;;;;;15.70;92.20;;;;;;5013421;28;19955;-23
2022/10/01 02:10:15;;;;;;;;;;;15.70;92.20;;;;;;5013044;28;19909;-24
2022/10/01 02:12:41;;;;;;;;;;;15.70;92.30;;;;;;5013362;28;20015;-23
2022/10/01 02:15:09;;;;;;;;;;;15.70;92.30;;;;;;5013691;28;19912;-24
2022/10/01 02:17:49;;;;;;;;;;;15.70;92.30;;;;;;5013229;28;19996;-24
2022/10/01 02:20:38;;;;;;;;;;;15.70;92.30;;;;;;5012861;28;19916;-24
2022/10/01 02:23:09;;;;;;;;;;;15.70;92.60;;;;;;5005103;28;19910;-23
2022/10/01 02:25:42;;;;;;;;;;;15.70;92.30;;;;;;5013023;28;20278;-23
2022/10/01 02:28:14;;;;;;;;;;;15.70;92.30;;;;;;5013085;28;19905;-24
2022/10/01 02:30:40;;;;;;;;;;;15.70;92.30;;;;;;5012871;28;19909;-24
2022/10/01 02:33:08;;;;;;;;;;;15.70;92.30;;;;;;5012778;28;19960;-24
2022/10/01 02:35:35;;;;;;;;;;;15.70;92.40;;;;;;5012951;28;19935;-23
2022/10/01 02:38:03;;;;;;;;;;;15.70;91.90;;;;;;5013003;28;20278;-24
2022/10/01 02:40:29;;;;;;;;;;;15.40;91.40;;;;;;5012243;28;19996;-24
2022/10/01 02:42:58;;;;;;;;;;;15.20;91.70;;;;;;5011550;28;19952;-24
2022/10/01 02:45:24;;;;;;;;;;;15.20;92.00;;;;;;5012940;28;19928;-24
2022/10/01 02:48:01;;;;;;;;;;;15.20;92.10;;;;;;5012514;28;19916;-24
2022/10/01 02:50:29;;;;;;;;;;;15.20;92.10;;;;;;5012484;28;19920;-24
2022/10/01 02:52:58;;;;;;;;;;;15.30;92.10;;;;;;5012643;28;19906;-24
2022/10/01 02:55:29;;;;;;;;;;;15.30;92.10;;;;;;5011284;28;19909;-24
2022/10/01 02:57:55;;;;;;;;;;;15.30;92.10;;;;;;5011162;28;20008;-23
2022/10/01 03:00:21;;;;;;;;;;;15.10;91.60;;;;;;5012155;28;20336;-24
2022/10/01 03:02:47;;;;;;;;;;;14.90;91.70;;;;;;5012321;28;20393;-24
2022/10/01 03:05:14;;;;;;;;;;;14.80;92.00;;;;;;5012308;28;19996;-24
2022/10/01 03:07:40;;;;;;;;;;;14.80;92.20;;;;;;5012378;28;19905;-24
2022/10/01 03:10:07;;;;;;;;;;;14.80;92.20;;;;;;5012190;28;20323;-23
2022/10/01 03:12:32;;;;;;;;;;;14.90;92.20;;;;;;5012245;28;19940;-23
2022/10/01 03:14:58;;;;;;;;;;;14.90;92.20;;;;;;5012151;28;19941;-23
2022/10/01 03:17:23;;;;;;;;;;;15.00;92.20;;;;;;5012519;28;20321;-24
2022/10/01 03:19:49;;;;;;;;;;;15.10;92.20;;;;;;5011965;28;19909;-24
2022/10/01 03:22:17;;;;;;;;;;;15.10;92.20;;;;;;5012056;28;19905;-24
2022/10/01 03:24:42;;;;;;;;;;;15.10;92.20;;;;;;5012108;28;19909;-24
2022/10/01 03:27:08;;;;;;;;;;;15.20;92.20;;;;;;5012082;28;19924;-23
2022/10/01 03:29:33;;;;;;;;;;;15.20;92.20;;;;;;5011750;28;19911;-24
2022/10/01 03:31:59;;;;;;;;;;;15.20;92.20;;;;;;5012153;28;20333;-24
2022/10/01 03:34:24;;;;;;;;;;;15.20;92.20;;;;;;5012008;28;20322;-24
2022/10/01 03:36:52;;;;;;;;;;;15.20;92.20;;;;;;5011935;28;19905;-24
2022/10/01 03:39:18;;;;;;;;;;;15.20;92.20;;;;;;5011922;28;19917;-24
2022/10/01 03:41:44;;;;;;;;;;;15.20;92.20;;;;;;5012035;28;19909;-24
2022/10/01 03:44:09;;;;;;;;;;;15.20;92.20;;;;;;5011765;28;19947;-24
2022/10/01 03:46:35;;;;;;;;;;;15.20;92.30;;;;;;5011921;28;20120;-24
2022/10/01 03:49:01;;;;;;;;;;;15.20;92.30;;;;;;5011762;28;20377;-24
2022/10/01 03:51:28;;;;;;;;;;;15.20;92.30;;;;;;5011571;28;19909;-24
2022/10/01 03:53:54;;;;;;;;;;;15.20;92.30;;;;;;5013322;28;20371;-24
2022/10/01 03:56:19;;;;;;;;;;;15.20;92.30;;;;;;5015760;28;20008;-24
2022/10/01 03:58:45;;;;;;;;;;;15.20;92.30;;;;;;5015504;28;20350;-24
2022/10/01 04:01:10;;;;;;;;;;;15.20;92.30;;;;;;5015577;28;19905;-23
2022/10/01 04:03:36;;;;;;;;;;;15.20;92.30;;;;;;5015642;28;19932;-24
2022/10/01 04:06:01;;;;;;;;;;;15.20;92.30;;;;;;5015560;28;19905;-23
2022/10/01 04:08:27;;;;;;;;;;;15.20;92.30;;;;;;5015452;28;19906;-24
2022/10/01 04:10:53;;;;;;;;;;;15.20;92.30;;;;;;5015506;28;20372;-24
2022/10/01 04:13:19;;;;;;;;;;;15.20;92.30;;;;;;5015274;28;19909;-23
2022/10/01 04:15:44;;;;;;;;;;;15.20;92.30;;;;;;5015634;28;19928;-24
2022/10/01 04:18:10;;;;;;;;;;;15.20;92.30;;;;;;5015606;28;20410;-24
2022/10/01 04:20:36;;;;;;;;;;;15.20;92.30;;;;;;5015117;28;20330;-24
2022/10/01 04:23:02;;;;;;;;;;;15.20;92.30;;;;;;5015450;28;19905;-24
2022/10/01 04:25:27;;;;;;;;;;;15.20;92.30;;;;;;5015533;28;19905;-24
2022/10/01 04:28:03;;;;;;;;;;;15.20;92.30;;;;;;5015110;28;19993;-24
2022/10/01 04:30:30;;;;;;;;;;;15.20;92.40;;;;;;5014900;28;19910;-24
2022/10/01 04:32:56;;;;;;;;;;;15.20;92.40;;;;;;5014970;28;19924;-24
2022/10/01 04:35:22;;;;;;;;;;;15.20;92.40;;;;;;5014930;28;19992;-23
2022/10/01 04:37:54;;;;;;;;;;;15.20;92.40;;;;;;5015122;28;20355;-23
2022/10/01 04:40:19;;;;;;;;;;;15.20;92.40;;;;;;5014631;28;19968;-23
2022/10/01 04:42:46;;;;;;;;;;;15.20;92.40;;;;;;5013511;28;20307;-23
2022/10/01 04:45:12;;;;;;;;;;;15.20;92.40;;;;;;5015080;28;20037;-23
2022/10/01 04:47:37;;;;;;;;;;;15.20;92.40;;;;;;5015227;28;19952;-23
2022/10/01 04:50:03;;;;;;;;;;;15.20;92.40;;;;;;5014632;28;20358;-23
2022/10/01 04:52:29;;;;;;;;;;;15.20;92.40;;;;;;5015307;28;19910;-23
2022/10/01 04:54:54;;;;;;;;;;;15.20;92.40;;;;;;5015000;28;19905;-23
2022/10/01 04:57:20;;;;;;;;;;;15.20;92.40;;;;;;5016869;28;19912;-23
2022/10/01 04:59:46;;;;;;;;;;;15.20;92.80;;;;;;5015161;28;20279;-23
2022/10/01 05:02:12;;;;;;;;;;;15.20;92.40;;;;;;5014353;28;19920;-23
2022/10/01 05:04:38;;;;;;;;;;;15.20;92.40;;;;;;5014151;28;19909;-23
2022/10/01 05:07:03;;;;;;;;;;;15.20;92.40;;;;;;5014474;28;19909;-23
2022/10/01 05:09:29;;;;;;;;;;;15.20;92.40;;;;;;5014231;28;19992;-23
2022/10/01 05:11:54;;;;;;;;;;;15.20;92.40;;;;;;5014307;28;19913;-23
2022/10/01 05:14:20;;;;;;;;;;;15.20;92.40;;;;;;5014561;28;20013;-23
2022/10/01 05:16:46;;;;;;;;;;;15.20;92.40;;;;;;5014394;28;19906;-23
2022/10/01 05:19:11;;;;;;;;;;;15.20;92.40;;;;;;5014057;28;19979;-24
2022/10/01 05:21:37;;;;;;;;;;;15.20;92.40;;;;;;5014383;28;19905;-23
2022/10/01 05:24:02;;;;;;;;;;;15.20;92.40;;;;;;5013973;28;19905;-23
2022/10/01 05:26:30;;;;;;;;;;;15.20;92.40;;;;;;5014324;28;19916;-23
2022/10/01 05:28:58;;;;;;;;;;;15.20;92.40;;;;;;5013898;28;19992;-23
2022/10/01 05:31:23;;;;;;;;;;;15.20;92.40;;;;;;5013833;28;19989;-23
2022/10/01 05:33:49;;;;;;;;;;;15.20;92.40;;;;;;5014104;28;19917;-23
2022/10/01 05:36:14;;;;;;;;;;;15.20;92.40;;;;;;5014434;28;19909;-23
2022/10/01 05:38:41;;;;;;;;;;;15.20;92.40;;;;;;5013507;28;20302;-24
2022/10/01 05:41:06;;;;;;;;;;;15.20;92.40;;;;;;5013678;28;19905;-24
2022/10/01 05:43:32;;;;;;;;;;;15.20;92.40;;;;;;5014009;28;19916;-24
2022/10/01 05:46:04;;;;;;;;;;;15.20;92.40;;;;;;5013950;28;19905;-24
2022/10/01 05:48:35;;;;;;;;;;;15.20;92.40;;;;;;5012210;28;19905;-24
2022/10/01 05:51:03;;;;;;;;;;;15.20;92.40;;;;;;5013588;28;20374;-24
2022/10/01 05:53:28;;;;;;;;;;;15.20;92.40;;;;;;5013659;28;19914;-24
2022/10/01 05:55:54;;;;;;;;;;;15.20;92.40;;;;;;5013544;28;19905;-24
2022/10/01 05:58:19;;;;;;;;;;;15.20;92.40;;;;;;5013517;28;19960;-24
2022/10/01 06:00:45;;;;;;;;;;;15.20;92.40;;;;;;5013320;28;20362;-24
2022/10/01 06:03:14;;;;;;;;;;;15.20;92.40;;;;;;5013186;28;19925;-23
2022/10/01 06:05:39;;;;;;;;;;;15.20;92.50;;;;;;5013328;28;20426;-24
2022/10/01 06:08:06;;;;;;;;;;;15.20;92.40;;;;;;5013225;28;19989;-24
2022/10/01 06:10:31;;;;;;;;;;;15.20;92.40;;;;;;5013046;28;19932;-24
2022/10/01 06:12:57;;;;;;;;;;;15.20;92.50;;;;;;5013174;28;19909;-24
2022/10/01 06:15:23;;;;;;;;;;;15.20;92.50;;;;;;5011056;28;19909;-23
2022/10/01 06:17:48;;;;;;;;;;;15.20;92.50;;;;;;5013147;28;19909;-24
2022/10/01 06:20:15;;;;;;;;;;;15.10;92.50;;;;;;5012661;28;20374;-24
2022/10/01 06:22:41;;;;;;;;;;;15.10;92.50;;;;;;5013001;28;19906;-24
2022/10/01 06:25:08;;;;;;;;;;;15.10;92.50;;;;;;5013098;28;19910;-24
2022/10/01 06:27:33;;;;;;;;;;;15.20;92.60;;;;;;5013024;28;19916;-23
2022/10/01 06:29:59;;;;;;;;;;;15.20;92.50;;;;;;5013135;28;19999;-24
2022/10/01 06:32:24;;;;;;;;;;;15.10;92.60;;;;;;5012736;28;20355;-23
2022/10/01 06:34:51;;;;;;;;;;;15.10;92.50;;;;;;5012688;28;19960;-24
2022/10/01 06:37:16;;;;;;;;;;;15.20;92.50;;;;;;5012991;28;19983;-23
2022/10/01 06:39:43;;;;;;;;;;;15.20;92.50;;;;;;5012604;28;19910;-24
2022/10/01 06:42:08;;;;;;;;;;;15.10;92.50;;;;;;5012643;28;20378;-23
2022/10/01 06:44:34;;;;;;;;;;;15.20;92.50;;;;;;5012795;28;19919;-23
2022/10/01 06:46:59;;;;;;;;;;;15.10;92.50;;;;;;5012772;28;20357;-24
2022/10/01 06:49:25;;;;;;;;;;;15.20;92.60;;;;;;5012420;28;20330;-23
2022/10/01 06:54:35;;;;;;;;;;;15.10;92.50;;;;;;5012821;28;19927;-23
2022/10/01 06:57:00;;;;;;;;;;;15.10;92.50;;;;;;5012781;28;20423;-24
2022/10/01 06:59:26;;;;;;;;;;;15.10;92.60;;;;;;5012525;28;19916;-24
2022/10/01 07:01:52;;;;;;;;;;;15.10;92.60;;;;;;5012339;28;19959;-24
2022/10/01 07:04:20;;;;;;;;;;;15.10;92.60;;;;;;5035968;23;20384;-25
2022/10/01 07:06:46;;;;;;;;;;;15.10;92.60;;;;;;5012454;28;19982;-25
2022/10/01 07:09:11;;;;;;;;;;;15.10;92.60;;;;;;5012091;28;20380;-25
2022/10/01 07:11:40;;;;;;;;;;;15.10;92.60;;;;;;5012120;28;19924;-25
2022/10/01 07:14:06;;;;;;;;;;;15.10;92.70;;;;;;5012275;28;19909;-25
2022/10/01 07:16:31;;;;;;;;;;;15.00;92.70;;;;;;5012195;28;19944;-25
2022/10/01 07:18:57;;;;;;;;;;;15.10;92.70;;;;;;5011938;28;19968;-25
2022/10/01 07:21:22;;;;;;;;;;;15.10;92.70;;;;;;5010754;28;19915;-25
2022/10/01 07:23:48;;;;;;;;;;;15.00;92.80;;;;;;5011958;28;19956;-25
2022/10/01 07:26:13;;;;;;;;;;;15.10;92.80;;;;;;5011908;28;19925;-25
2022/10/01 07:28:39;;;;;;;;;;;15.00;92.80;;;;;;5012058;28;19909;-25
2022/10/01 07:31:10;;;;;;;;;;;15.00;92.90;;;;;;5011875;28;19906;-25
2022/10/01 07:33:35;;;;;;;;;;;15.00;92.90;;;;;;5011962;28;19905;-25
2022/10/01 07:36:03;;;;;;;;;;;15.00;92.90;;;;;;5012079;28;19916;-25
2022/10/01 07:38:28;;;;;;;;;;;15.00;92.90;;;;;;5011656;28;20382;-25
2022/10/01 07:40:54;;;;;;;;;;;15.00;93.00;;;;;;5011867;28;19909;-25
2022/10/01 07:43:19;;;;;;;;;;;15.00;93.00;;;;;;5011835;28;19944;-25
2022/10/01 07:45:53;;;;;;;;;;;15.00;93.00;;;;;;5010574;28;19912;-25
2022/10/01 07:48:19;;;;;;;;;;;15.00;93.00;;;;;;5011906;28;19959;-25
2022/10/01 07:50:45;;;;;;;;;;;15.00;93.10;;;;;;5011711;28;19909;-25
2022/10/01 07:53:10;;;;;;;;;;;15.00;93.10;;;;;;5011673;28;19981;-25
2022/10/01 07:55:36;;;;;;;;;;;15.00;93.20;;;;;;5011724;28;19905;-25
2022/10/01 07:58:02;;;;;;;;;;;15.00;93.20;;;;;;5011680;28;19909;-25
2022/10/01 08:00:29;;;;;;;;;;;15.00;93.20;;;;;;5011510;28;20380;-25
2022/10/01 08:02:55;;;;;;;;;;;15.00;93.20;;;;;;5011655;28;19931;-25
2022/10/01 08:05:25;;;;;;;;;;;15.00;93.30;;;;;;5011719;28;19910;-25
2022/10/01 08:07:51;;;;;;;;;;;15.00;93.30;;;;;;5011489;28;19921;-25
2022/10/01 08:10:17;;;;;;;;;;;15.00;93.30;;;;;;5011514;28;19909;-25
2022/10/01 08:12:43;;;;;;;;;;;15.00;93.30;;;;;;5011694;28;19909;-25
2022/10/01 08:15:14;;;;;;;;;;;15.00;93.40;;;;;;5011490;28;20279;-25
2022/10/01 08:17:40;;;;;;;;;;;14.80;94.50;;;;;;5012072;28;19905;-25
2022/10/01 08:20:06;;;;;;;;;;;14.60;95.10;;;;;;5011275;28;20485;-25
2022/10/01 08:22:31;;;;;;;;;;;14.40;95.50;;;;;;5011598;28;19905;-26
2022/10/01 08:24:57;;;;;;;;;;;14.30;95.50;;;;;;5011471;28;20286;-26
2022/10/01 08:27:26;;;;;;;;;;;14.40;95.50;;;;;;5011467;28;20004;-25
2022/10/01 08:29:52;;;;;;;;;;;14.40;95.40;;;;;;5011370;28;19905;-25
2022/10/01 08:32:18;;;;;;;;;;;14.50;95.40;;;;;;5011420;28;20068;-26
2022/10/01 08:34:43;;;;;;;;;;;14.50;95.20;;;;;;5011262;28;20418;-26
2022/10/01 08:37:09;;;;;;;;;;;14.60;95.20;;;;;;5011356;28;19931;-26
2022/10/01 08:39:35;;;;;;;;;;;14.60;95.10;;;;;;5013159;28;19976;-25
2022/10/01 08:42:07;;;;;;;;;;;14.70;95.10;;;;;;5014866;28;19912;-25
2022/10/01 08:44:41;;;;;;;;;;;14.70;95.00;;;;;;5014747;28;20361;-26
2022/10/01 08:47:28;;;;;;;;;;;14.70;95.00;;;;;;5014834;28;19996;-26
2022/10/01 08:49:58;;;;;;;;;;;14.70;94.90;;;;;;5014638;28;20405;-26
2022/10/01 08:52:25;;;;;;;;;;;14.70;94.90;;;;;;5014664;28;20329;-26
2022/10/01 08:54:54;;;;;;;;;;;14.70;94.90;;;;;;5014694;28;19909;-26
2022/10/01 08:57:24;;;;;;;;;;;14.80;94.90;;;;;;5014652;28;19912;-26
2022/10/01 08:59:52;;;;;;;;;;;14.80;94.90;;;;;;5014198;28;19937;-26
2022/10/01 09:02:23;;;;;;;;;;;14.80;94.90;;;;;;5014604;28;19906;-26
2022/10/01 09:04:50;;;;;;;;;;;14.80;94.90;;;;;;5014412;28;19913;-26
2022/10/01 09:07:30;;;;;;;;;;;14.80;94.80;;;;;;5014556;28;20100;-25
2022/10/01 09:10:04;;;;;;;;;;;14.80;94.80;;;;;;5014411;28;19909;-26
2022/10/01 09:12:35;;;;;;;;;;;14.80;94.90;;;;;;5014900;28;19905;-26
2022/10/01 09:15:14;;;;;;;;;;;14.80;94.90;;;;;;5014286;28;19952;-26
2022/10/01 09:17:40;;;;;;;;;;;14.80;94.90;;;;;;5014327;28;19999;-26
2022/10/01 09:20:26;;;;;;;;;;;14.80;94.90;;;;;;5013945;28;19909;-25
2022/10/01 09:23:11;;;;;;;;;;;14.80;94.90;;;;;;5014014;28;20295;-25
2022/10/01 09:25:37;;;;;;;;;;;14.80;94.90;;;;;;5014353;28;19912;-26
2022/10/01 09:28:17;;;;;;;;;;;14.80;95.00;;;;;;5014002;28;19917;-26
2022/10/01 09:30:57;;;;;;;;;;;14.80;95.00;;;;;;5013877;28;19917;-26
2022/10/01 09:33:28;;;;;;;;;;;14.80;95.00;;;;;;5013995;28;19914;-26
2022/10/01 09:35:58;;;;;;;;;;;14.80;95.00;;;;;;5013955;28;19989;-25
2022/10/01 09:38:39;;;;;;;;;;;14.80;95.00;;;;;;5013737;28;20417;-26
2022/10/01 09:41:06;;;;;;;;;;;14.80;95.00;;;;;;5013717;28;19931;-26
2022/10/01 09:43:33;;;;;;;;;;;14.80;95.00;;;;;;5012206;28;19909;-26
2022/10/01 09:45:58;;;;;;;;;;;14.80;95.00;;;;;;5013623;28;19910;-26
2022/10/01 09:48:36;;;;;;;;;;;14.80;95.00;;;;;;5013513;28;19912;-26
2022/10/01 09:51:07;;;;;;;;;;;14.80;95.00;;;;;;5013423;28;19905;-26
2022/10/01 09:53:38;;;;;;;;;;;14.80;95.00;;;;;;5013576;28;19956;-26
2022/10/01 09:56:18;;;;;;;;;;;14.80;95.00;;;;;;5013455;28;20751;-26
2022/10/01 09:58:46;;;;;;;;;;;14.80;95.10;;;;;;5013305;28;19914;-26
2022/10/01 10:01:17;;;;;;;;;;;14.80;95.10;;;;;;5013285;28;19905;-26
2022/10/01 10:03:51;;;;;;;;;;;14.80;95.10;;;;;;5013266;28;20075;-26
2022/10/01 10:06:20;;;;;;;;;;;14.80;95.10;;;;;;5013531;28;19905;-26
2022/10/01 10:08:45;;;;;;;;;;;14.80;95.20;;;;;;5013184;28;20011;-26
2022/10/01 10:11:19;;;;;;;;;;;14.80;95.20;;;;;;5013157;28;20022;-26
2022/10/01 10:13:48;;;;;;;;;;;14.80;95.20;;;;;;5013144;28;19916;-26
2022/10/01 10:16:14;;;;;;;;;;;14.80;95.20;;;;;;5013175;28;20283;-25
2022/10/01 10:18:39;;;;;;;;;;;14.80;95.20;;;;;;5013343;28;19913;-26
2022/10/01 10:21:10;;;;;;;;;;;14.80;95.20;;;;;;5012908;28;19913;-26
2022/10/01 10:23:47;;;;;;;;;;;14.80;95.20;;;;;;5013069;28;19952;-26
2022/10/01 10:26:16;;;;;;;;;;;14.80;95.20;;;;;;5013030;28;19913;-26
2022/10/01 10:28:45;;;;;;;;;;;14.80;95.20;;;;;;5012843;28;19905;-26
2022/10/01 10:31:21;;;;;;;;;;;14.80;95.30;;;;;;5012856;28;20442;-26
2022/10/01 10:34:04;;;;;;;;;;;14.80;95.30;;;;;;5012759;28;19912;-26
2022/10/01 10:36:32;;;;;;;;;;;14.80;95.30;;;;;;5012864;28;19921;-26
2022/10/01 10:38:58;;;;;;;;;;;14.80;95.30;;;;;;5012549;28;20359;-26
2022/10/01 10:41:25;;;;;;;;;;;14.80;95.30;;;;;;5012588;28;19905;-26
2022/10/01 10:43:56;;;;;;;;;;;14.80;95.30;;;;;;5012606;28;20011;-26
2022/10/01 10:46:25;;;;;;;;;;;14.80;95.70;;;;;;5012705;28;20296;-26
2022/10/01 10:48:57;;;;;;;;;;;14.80;95.40;;;;;;5012542;28;19905;-26
2022/10/01 10:51:23;;;;;;;;;;;14.80;95.30;;;;;;5012745;28;19910;-26
2022/10/01 10:53:48;;;;;;;;;;;14.80;95.40;;;;;;5012470;28;19912;-26
2022/10/01 10:56:23;;;;;;;;;;;14.80;95.40;;;;;;5012488;28;19905;-26
2022/10/01 10:58:52;;;;;;;;;;;14.80;95.40;;;;;;5012506;28;20335;-26
2022/10/01 11:01:38;;;;;;;;;;;14.80;95.40;;;;;;5011979;28;20386;-26
2022/10/01 11:04:15;;;;;;;;;;;14.80;95.40;;;;;;5012316;28;19920;-26
2022/10/01 11:06:40;;;;;;;;;;;14.80;95.40;;;;;;5012449;28;20031;-25
2022/10/01 11:09:09;;;;;;;;;;;14.80;95.40;;;;;;5012137;28;19948;-26
2022/10/01 11:11:49;;;;;;;;;;;14.80;95.40;;;;;;5012414;28;19913;-26
2022/10/01 11:14:31;;;;;;;;;;;14.80;95.40;;;;;;5012217;28;19905;-26
2022/10/01 11:17:02;;;;;;;;;;;14.80;95.40;;;;;;5012088;28;20004;-26
2022/10/01 11:19:31;;;;;;;;;;;14.90;95.50;;;;;;5011912;28;19913;-25
2022/10/01 11:22:11;;;;;;;;;;;14.90;95.40;;;;;;5012085;28;19906;-26
2022/10/01 11:24:39;;;;;;;;;;;14.90;95.50;;;;;;5012065;28;20144;-26
2022/10/01 11:27:09;;;;;;;;;;;14.90;95.50;;;;;;5012099;28;20016;-26
2022/10/01 11:29:40;;;;;;;;;;;14.80;95.50;;;;;;5011945;28;19952;-26
2022/10/01 11:32:18;;;;;;;;;;;14.90;95.50;;;;;;5011844;28;19909;-26
2022/10/01 11:34:47;;;;;;;;;;;14.90;95.50;;;;;;5012054;28;20000;-26
2022/10/01 11:37:23;;;;;;;;;;;14.80;95.50;;;;;;5011971;28;20407;-26
2022/10/01 11:39:50;;;;;;;;;;;14.80;95.50;;;;;;5011701;28;19909;-26
2022/10/01 11:42:18;;;;;;;;;;;14.90;95.60;;;;;;5011723;28;19905;-25
2022/10/01 11:44:56;;;;;;;;;;;14.80;95.50;;;;;;5011831;28;19940;-26
2022/10/01 11:47:24;;;;;;;;;;;14.90;95.60;;;;;;5011921;28;19905;-26
2022/10/01 11:50:02;;;;;;;;;;;14.90;95.60;;;;;;5011741;28;19967;-26
2022/10/01 11:52:31;;;;;;;;;;;14.90;95.60;;;;;;5011818;28;19960;-26
2022/10/01 11:58:49;;;;;;;;;;;14.90;95.60;;;;;;5012078;28;19980;-26
2022/10/01 12:00:32;;;;;;;;;;;14.90;95.60;;;;;;5011539;28;19932;-26
2022/10/01 12:03:00;;;;;;;;;;;14.80;95.60;;;;;;5011551;28;19910;-26
2022/10/01 12:05:28;;;;;;;;;;;14.90;95.60;;;;;;5011793;28;20438;-26
2022/10/01 12:08:08;;;;;;;;;;;14.90;95.60;;;;;;5011714;28;19916;-26
2022/10/01 12:10:33;;;;;;;;;;;14.90;95.60;;;;;;5011558;28;19909;-26
2022/10/01 12:13:14;;;;;;;;;;;14.90;95.50;;;;;;5011565;28;19913;-26
2022/10/01 12:16:00;;;;;;;;;;;14.90;95.50;;;;;;5015356;28;19912;-27
2022/10/01 12:18:44;;;;;;;;;;;15.00;95.50;;;;;;5015739;28;19912;-26
2022/10/01 12:21:17;;;;;;;;;;;15.00;95.50;;;;;;5015326;28;19956;-26
2022/10/01 12:23:49;;;;;;;;;;;15.00;95.50;;;;;;5013864;28;19960;-26
2022/10/01 12:26:33;;;;;;;;;;;15.00;95.50;;;;;;5015201;28;19905;-26
2022/10/01 12:28:59;;;;;;;;;;;15.10;95.50;;;;;;5015193;28;19906;-26
2022/10/01 12:31:32;;;;;;;;;;;15.00;95.50;;;;;;5015357;28;19911;-26
2022/10/01 12:34:16;;;;;;;;;;;15.10;95.50;;;;;;5015107;28;20494;-26
2022/10/01 12:36:47;;;;;;;;;;;15.10;95.50;;;;;;5014898;28;19963;-26
2022/10/01 12:39:13;;;;;;;;;;;15.10;95.50;;;;;;5014800;28;19968;-26
2022/10/01 12:41:57;;;;;;;;;;;15.10;95.40;;;;;;5014893;28;19936;-26
2022/10/01 12:44:32;;;;;;;;;;;15.10;95.40;;;;;;5014874;28;19913;-26
2022/10/01 12:47:01;;;;;;;;;;;15.10;95.40;;;;;;5014794;28;20463;-26
2022/10/01 12:49:40;;;;;;;;;;;15.10;95.40;;;;;;5014677;28;19906;-26
2022/10/01 12:52:12;;;;;;;;;;;15.20;95.40;;;;;;5014763;28;19906;-26
2022/10/01 12:54:46;;;;;;;;;;;15.20;95.40;;;;;;5014625;28;20011;-25
2022/10/01 12:57:51;;;;;;;;;;;15.30;95.50;;;;;;5014878;28;20303;-27
2022/10/01 13:00:18;;;;;;;;;;;15.30;95.40;;;;;;4992219;28;19909;-25
2022/10/01 13:03:02;;;;;;;;;;;15.50;95.40;;;;;;4992578;28;19914;-25
2022/10/01 13:05:48;;;;;;;;;;;15.50;95.30;;;;;;5035987;22;19929;-23
2022/10/01 13:08:16;;;;;;;;;;;15.50;95.30;;;;;;5005324;28;19960;-23
2022/10/01 13:10:45;;;;;;;;;;;15.50;95.30;;;;;;5014064;28;19905;-23
2022/10/01 13:13:23;;;;;;;;;;;15.50;95.20;;;;;;5015395;28;19912;-24
2022/10/01 13:15:54;;;;;;;;;;;15.60;95.20;;;;;;4995971;28;19906;-23
2022/10/01 13:18:37;;;;;;;;;;;15.60;95.20;;;;;;4995687;28;19910;-23
2022/10/01 13:21:06;;;;;;;;;;;15.60;95.20;;;;;;4995425;28;19910;-23
2022/10/01 13:23:50;;;;;;;;;;;15.60;95.20;;;;;;4995153;28;19905;-23
2022/10/01 13:26:18;;;;;;;;;;;15.60;95.30;;;;;;4994750;28;20236;-23
2022/10/01 13:29:05;;;;;;;;;;;15.50;95.30;;;;;;4994846;28;19953;-23
2022/10/01 13:31:33;;;;;;;;;;;15.60;95.20;;;;;;4995236;28;19909;-23
2022/10/01 13:34:00;;;;;;;;;;;15.60;95.20;;;;;;4994901;28;20347;-23
2022/10/01 13:36:33;;;;;;;;;;;15.60;95.20;;;;;;4994868;28;19929;-23
2022/10/01 13:38:59;;;;;;;;;;;15.60;95.20;;;;;;4994551;28;19909;-24
2022/10/01 13:41:27;;;;;;;;;;;15.50;95.20;;;;;;4994503;28;19993;-24
2022/10/01 13:44:01;;;;;;;;;;;15.50;95.20;;;;;;4994848;28;19905;-24
2022/10/01 13:46:31;;;;;;;;;;;15.60;95.20;;;;;;4995734;28;19906;-24
2022/10/01 13:49:13;;;;;;;;;;;15.50;95.20;;;;;;4995216;28;20346;-24
2022/10/01 13:51:40;;;;;;;;;;;15.50;95.20;;;;;;4994382;28;19996;-24
2022/10/01 13:54:07;;;;;;;;;;;15.50;95.30;;;;;;4994742;28;19956;-24
2022/10/01 13:56:35;;;;;;;;;;;15.50;95.30;;;;;;4994940;28;19905;-24
2022/10/01 13:59:01;;;;;;;;;;;15.50;95.30;;;;;;4994587;28;20169;-24
2022/10/01 14:01:37;;;;;;;;;;;15.40;95.40;;;;;;4994101;28;20399;-23
2022/10/01 14:04:25;;;;;;;;;;;15.40;95.40;;;;;;4994314;28;20331;-23
2022/10/01 14:06:57;;;;;;;;;;;15.40;95.40;;;;;;4994696;28;20528;-23
2022/10/01 14:09:27;;;;;;;;;;;15.40;95.50;;;;;;4994386;28;19916;-24
2022/10/01 14:17:27;;;;;;;;;;;15.40;95.50;;;;;;4998192;28;19976;-25
2022/10/01 14:19:53;;;;;;;;;;;15.40;95.60;;;;;;4995099;28;19914;-25
2022/10/01 14:22:24;;;;;;;;;;;15.40;95.60;;;;;;4994152;28;19928;-25
2022/10/01 14:24:59;;;;;;;;;;;15.40;95.60;;;;;;4994222;28;20004;-25
2022/10/01 14:27:36;;;;;;;;;;;15.30;95.70;;;;;;5009364;28;20337;-24
2022/10/01 14:30:16;;;;;;;;;;;15.30;95.60;;;;;;4993877;28;19905;-25
2022/10/01 14:32:57;;;;;;;;;;;15.30;95.70;;;;;;4994190;28;19913;-25
2022/10/01 14:35:26;;;;;;;;;;;15.30;95.70;;;;;;4992624;28;19914;-25
2022/10/01 14:37:56;;;;;;;;;;;15.30;95.70;;;;;;4992962;28;19906;-25
2022/10/01 14:40:22;;;;;;;;;;;15.20;95.80;;;;;;4994261;28;19910;-25